createdAt,value
2019-06-20T05:40:21.022Z,67.37
2019-06-20T05:45:21.897Z,66.67
2019-06-20T05:50:22.767Z,65.81
2019-06-20T05:55:23.740Z,65.68
2019-06-20T06:00:24.920Z,63.70
2019-06-20T06:05:25.814Z,63.98
2019-06-20T06:10:26.903Z,62.21
2019-06-20T06:15:27.780Z,63.13
2019-06-20T06:20:28.658Z,60.10
2019-06-20T06:25:29.535Z,60.01
2019-06-20T06:30:30.811Z,59.83
2019-06-20T06:35:31.702Z,59.98
2019-06-20T06:40:32.774Z,58.78
2019-06-20T06:45:33.860Z,58.35
2019-06-20T06:50:35.020Z,58.73
2019-06-20T06:55:36.011Z,56.45
2019-06-20T07:00:36.891Z,56.10
2019-06-20T07:05:37.800Z,56.39
2019-06-20T07:10:38.727Z,55.81
2019-06-20T07:15:39.618Z,54.68
2019-06-20T07:20:40.494Z,54.54
2019-06-20T07:25:41.466Z,54.08
2019-06-20T07:30:42.347Z,52.90
2019-06-20T07:35:43.228Z,53.73
2019-06-20T07:40:44.132Z,52.14
2019-06-20T07:46:01.157Z,51.73
2019-06-20T07:50:47.803Z,52.34
2019-06-20T07:55:48.679Z,51.92
2019-06-20T08:00:49.576Z,50.76
2019-06-20T08:05:50.498Z,52.93
2019-06-20T08:10:57.788Z,50.71
2019-06-20T08:15:59.156Z,50.39
2019-06-20T08:21:00.650Z,49.90
2019-06-20T08:26:02.550Z,51.19
2019-06-20T08:31:04.814Z,50.28
2019-06-20T08:36:06.713Z,50.59
2019-06-20T08:41:07.991Z,48.58
2019-06-20T08:46:10.374Z,49.03
2019-06-20T08:51:14.820Z,48.36
2019-06-20T08:56:15.845Z,48.37
2019-06-20T09:01:16.722Z,46.37
2019-06-20T09:06:17.593Z,46.44
2019-06-20T09:11:18.463Z,44.83
2019-06-20T09:16:24.566Z,44.44
2019-06-20T09:21:22.227Z,45.67
2019-06-20T09:26:23.084Z,45.73
2019-06-20T09:31:23.955Z,44.87
2019-06-20T09:36:24.947Z,42.53
2019-06-20T09:41:25.835Z,43.37
2019-06-20T09:46:26.710Z,44.05
2019-06-20T09:51:27.698Z,42.45
2019-06-20T09:56:28.577Z,43.77
2019-06-20T10:01:32.660Z,43.71
2019-06-20T10:06:34.242Z,41.40
2019-06-20T10:11:35.528Z,42.97
2019-06-20T10:16:45.280Z,44.25
2019-06-20T10:21:39.283Z,43.73
2019-06-20T10:26:40.369Z,43.41
2019-06-20T10:31:41.633Z,42.84
2019-06-20T10:36:44.818Z,42.00
2019-06-20T10:41:46.806Z,42.29
2019-06-20T10:46:49.199Z,39.35
2019-06-20T10:51:50.169Z,40.24
2019-06-20T10:56:51.137Z,40.68
2019-06-20T11:01:52.131Z,40.39
2019-06-20T11:06:53.002Z,38.56
2019-06-20T11:11:53.964Z,37.06
2019-06-20T11:16:54.848Z,37.58
2019-06-20T11:21:55.737Z,38.02
2019-06-20T11:26:56.591Z,37.84
2019-06-20T11:31:57.763Z,38.73
2019-06-20T11:36:58.621Z,38.32
2019-06-20T11:42:01.721Z,37.56
2019-06-20T11:47:02.715Z,38.59
2019-06-20T11:52:03.689Z,36.22
2019-06-20T11:57:04.684Z,35.98
2019-06-20T12:02:05.581Z,37.21
2019-06-20T12:07:06.850Z,38.61
2019-06-20T12:12:07.726Z,38.93
2019-06-20T12:17:08.966Z,39.55
2019-06-20T12:22:10.027Z,38.75
2019-06-20T12:27:10.866Z,37.81
2019-06-20T12:32:11.784Z,37.76
2019-06-20T12:37:14.668Z,38.59
2019-06-20T12:42:15.589Z,37.41
2019-06-20T12:47:16.457Z,36.01
2019-06-20T12:52:17.350Z,36.84
2019-06-20T12:57:18.225Z,37.71
2019-06-20T13:02:19.100Z,37.39
2019-06-20T13:07:20.006Z,35.80
2019-06-20T13:12:20.874Z,35.74
2019-06-20T13:17:21.754Z,37.31
2019-06-20T13:22:22.762Z,35.76
2019-06-20T13:27:23.636Z,34.87
2019-06-20T13:32:24.495Z,35.93
2019-06-20T13:37:25.348Z,36.01
2019-06-20T13:42:28.006Z,36.11
2019-06-20T13:47:28.985Z,35.14
2019-06-20T13:52:29.858Z,35.33
2019-06-20T13:57:30.740Z,34.57
2019-06-20T14:02:31.616Z,34.71
2019-06-20T14:07:32.594Z,34.47
2019-06-20T14:12:33.495Z,33.43
2019-06-20T14:17:43.604Z,33.35
2019-06-20T14:22:49.407Z,33.12
2019-06-20T14:27:51.709Z,31.16
2019-06-20T14:32:53.981Z,30.32
2019-06-20T14:37:55.663Z,31.62
2019-06-20T14:42:58.629Z,34.49
2019-06-20T14:48:00.267Z,32.51
2019-06-20T14:53:02.883Z,32.91
2019-06-20T14:58:04.460Z,32.34
2019-06-20T15:03:07.127Z,34.22
2019-06-20T15:08:08.115Z,32.99
2019-06-20T15:13:08.997Z,34.19
2019-06-20T15:18:09.869Z,34.77
2019-06-20T15:23:10.735Z,36.14
2019-06-20T15:28:11.637Z,35.17
2019-06-20T15:33:12.532Z,34.33
2019-06-20T15:38:13.405Z,34.56
2019-06-20T15:43:14.310Z,37.73
2019-06-20T15:48:15.198Z,36.58
2019-06-20T15:53:16.065Z,35.47
2019-06-20T15:58:16.940Z,36.19
2019-06-20T16:03:17.813Z,38.13
2019-06-20T16:08:22.108Z,38.18
2019-06-20T16:13:23.879Z,38.01
2019-06-20T16:18:38.356Z,38.73
2019-06-20T16:23:40.131Z,39.96
2019-06-20T16:28:46.169Z,38.68
2019-06-20T16:39:06.134Z,38.49
2019-06-20T16:44:07.042Z,42.31
2019-06-20T16:49:07.903Z,43.89
2019-06-20T16:54:08.782Z,42.82
2019-06-20T16:59:09.760Z,43.49
2019-06-20T17:04:10.620Z,42.69
2019-06-20T17:09:11.635Z,43.13
2019-06-20T17:14:12.692Z,43.65
2019-06-20T17:19:13.559Z,52.03
2019-06-20T17:24:14.428Z,56.24
2019-06-20T17:29:15.309Z,68.06
2019-06-20T17:34:16.273Z,70.98
2019-06-20T17:39:17.248Z,71.86
2019-06-20T17:44:18.240Z,72.18
2019-06-20T17:49:19.230Z,75.24
2019-06-20T17:54:20.095Z,75.44
2019-06-20T17:59:22.843Z,75.87
2019-06-20T18:04:26.640Z,72.78
2019-06-20T18:09:26.527Z,73.58
2019-06-20T18:14:27.571Z,73.15
2019-06-20T18:19:28.480Z,73.83
2019-06-20T18:24:29.353Z,74.17
2019-06-20T18:29:30.405Z,75.07
2019-06-20T18:34:31.275Z,73.63
2019-06-20T18:39:32.676Z,74.52
2019-06-20T18:44:33.623Z,74.12
2019-06-20T18:49:34.509Z,76.45
2019-06-20T18:54:35.369Z,75.18
2019-06-20T18:59:36.621Z,77.38
2019-06-20T19:04:47.984Z,76.47
2019-06-20T19:09:40.663Z,76.36
2019-06-20T19:14:41.536Z,78.13
2019-06-20T19:19:42.449Z,78.89
2019-06-20T19:24:43.424Z,77.84
2019-06-20T19:29:44.284Z,75.53
2019-06-20T19:35:00.620Z,77.29
2019-06-20T19:39:48.055Z,76.11
2019-06-20T19:44:49.006Z,76.00
2019-06-20T19:49:49.858Z,75.98
2019-06-20T19:54:50.858Z,77.12
2019-06-20T19:59:52.148Z,79.84
2019-06-20T20:04:53.007Z,78.49
2019-06-20T20:09:53.882Z,80.27
2019-06-20T20:14:54.992Z,79.97
